sensor_id;sensor_type;location;lat;lon;timestamp;temperature;humidity
5128;DHT22;2582;48.770;9.190;2023-11-19T00:01:53;10.00;99.90
5128;DHT22;2582;48.770;9.190;2023-11-19T00:04:19;10.10;99.90
5128;DHT22;2582;48.770;9.190;2023-11-19T00:06:44;10.10;99.90
5128;DHT22;2582;48.770;9.190;2023-11-19T00:09:10;10.10;99.90
5128;DHT22;2582;48.770;9.190;2023-11-19T00:11:35;10.20;99.90
5128;DHT22;2582;48.770;9.190;2023-11-19T00:14:01;10.40;99.90
5128;DHT22;2582;48.770;9.190;2023-11-19T00:16:27;10.40;99.90
5128;DHT22;2582;48.770;9.190;2023-11-19T00:18:53;10.30;99.90
5128;DHT22;2582;48.770;9.190;2023-11-19T00:21:19;10.40;99.90
5128;DHT22;2582;48.770;9.190;2023-11-19T00:23:44;10.50;99.90
5128;DHT22;2582;48.770;9.190;2023-11-19T00:26:10;10.50;99.90
5128;DHT22;2582;48.770;9.190;2023-11-19T00:28:35;10.50;99.90
5128;DHT22;2582;48.770;9.190;2023-11-19T00:31:04;10.60;99.90
5128;DHT22;2582;48.770;9.190;2023-11-19T00:33:30;10.60;99.90
5128;DHT22;2582;48.770;9.190;2023-11-19T00:35:56;10.70;99.90
5128;DHT22;2582;48.770;9.190;2023-11-19T00:38:22;10.60;99.90
5128;DHT22;2582;48.770;9.190;2023-11-19T00:40:47;10.60;99.90
5128;DHT22;2582;48.770;9.190;2023-11-19T00:43:13;10.60;99.90
5128;DHT22;2582;48.770;9.190;2023-11-19T00:45:38;10.60;99.90
5128;DHT22;2582;48.770;9.190;2023-11-19T00:48:04;10.60;99.90
5128;DHT22;2582;48.770;9.190;2023-11-19T00:50:30;10.60;99.90
5128;DHT22;2582;48.770;9.190;2023-11-19T00:52:56;10.70;99.90
5128;DHT22;2582;48.770;9.190;2023-11-19T00:55:22;10.60;99.90
5128;DHT22;2582;48.770;9.190;2023-11-19T00:57:47;10.70;99.90
5128;DHT22;2582;48.770;9.190;2023-11-19T01:00:13;10.80;99.90
5128;DHT22;2582;48.770;9.190;2023-11-19T01:02:45;10.90;99.90
5128;DHT22;2582;48.770;9.190;2023-11-19T01:05:11;10.90;99.90
5128;DHT22;2582;48.770;9.190;2023-11-19T01:07:39;10.90;99.90
5128;DHT22;2582;48.770;9.190;2023-11-19T01:10:05;11.00;99.90
5128;DHT22;2582;48.770;9.190;2023-11-19T01:12:31;11.00;99.90
5128;DHT22;2582;48.770;9.190;2023-11-19T01:14:57;11.10;99.90
5128;DHT22;2582;48.770;9.190;2023-11-19T01:17:23;11.10;99.90
5128;DHT22;2582;48.770;9.190;2023-11-19T01:19:49;11.10;99.90
5128;DHT22;2582;48.770;9.190;2023-11-19T01:22:15;11.20;99.90
5128;DHT22;2582;48.770;9.190;2023-11-19T01:24:41;11.30;99.90
5128;DHT22;2582;48.770;9.190;2023-11-19T01:27:06;11.30;99.90
5128;DHT22;2582;48.770;9.190;2023-11-19T01:29:32;11.40;99.90
5128;DHT22;2582;48.770;9.190;2023-11-19T01:31:58;11.40;99.90
5128;DHT22;2582;48.770;9.190;2023-11-19T01:34:24;11.40;99.90
5128;DHT22;2582;48.770;9.190;2023-11-19T01:36:49;11.30;99.90
5128;DHT22;2582;48.770;9.190;2023-11-19T01:39:15;11.20;99.90
5128;DHT22;2582;48.770;9.190;2023-11-19T01:41:45;11.40;99.90
5128;DHT22;2582;48.770;9.190;2023-11-19T01:44:11;11.40;99.90
5128;DHT22;2582;48.770;9.190;2023-11-19T01:46:41;11.40;99.90
5128;DHT22;2582;48.770;9.190;2023-11-19T01:49:07;11.50;99.90
5128;DHT22;2582;48.770;9.190;2023-11-19T01:51:34;11.50;99.90
5128;DHT22;2582;48.770;9.190;2023-11-19T01:54:00;11.60;99.90
5128;DHT22;2582;48.770;9.190;2023-11-19T01:56:27;11.60;99.90
5128;DHT22;2582;48.770;9.190;2023-11-19T01:58:54;11.70;99.90
5128;DHT22;2582;48.770;9.190;2023-11-19T02:01:20;11.60;99.90
5128;DHT22;2582;48.770;9.190;2023-11-19T02:03:45;11.60;99.90
5128;DHT22;2582;48.770;9.190;2023-11-19T02:06:12;11.70;99.90
5128;DHT22;2582;48.770;9.190;2023-11-19T02:08:39;11.60;99.90
5128;DHT22;2582;48.770;9.190;2023-11-19T02:11:05;11.70;99.90
5128;DHT22;2582;48.770;9.190;2023-11-19T02:13:32;11.70;99.90
5128;DHT22;2582;48.770;9.190;2023-11-19T02:15:57;11.70;99.90
5128;DHT22;2582;48.770;9.190;2023-11-19T02:18:26;11.80;99.90
5128;DHT22;2582;48.770;9.190;2023-11-19T02:20:54;11.80;99.90
5128;DHT22;2582;48.770;9.190;2023-11-19T02:23:20;11.90;99.90
5128;DHT22;2582;48.770;9.190;2023-11-19T02:26:13;11.80;99.90
5128;DHT22;2582;48.770;9.190;2023-11-19T02:28:40;11.80;99.90
5128;DHT22;2582;48.770;9.190;2023-11-19T02:31:06;11.70;99.90
5128;DHT22;2582;48.770;9.190;2023-11-19T02:33:35;11.70;99.90
5128;DHT22;2582;48.770;9.190;2023-11-19T02:36:02;11.60;99.90
5128;DHT22;2582;48.770;9.190;2023-11-19T02:38:27;11.70;99.90
5128;DHT22;2582;48.770;9.190;2023-11-19T02:40:53;11.70;99.90
5128;DHT22;2582;48.770;9.190;2023-11-19T02:43:18;11.90;99.90
5128;DHT22;2582;48.770;9.190;2023-11-19T02:45:45;11.90;99.90
5128;DHT22;2582;48.770;9.190;2023-11-19T02:48:11;12.00;99.90
5128;DHT22;2582;48.770;9.190;2023-11-19T02:50:36;11.90;99.90
5128;DHT22;2582;48.770;9.190;2023-11-19T02:53:02;12.00;99.90
5128;DHT22;2582;48.770;9.190;2023-11-19T02:55:28;12.10;99.90
5128;DHT22;2582;48.770;9.190;2023-11-19T02:57:56;12.20;99.90
5128;DHT22;2582;48.770;9.190;2023-11-19T03:00:24;12.20;99.90
5128;DHT22;2582;48.770;9.190;2023-11-19T03:02:57;12.00;99.90
5128;DHT22;2582;48.770;9.190;2023-11-19T03:05:30;12.10;99.90
5128;DHT22;2582;48.770;9.190;2023-11-19T03:07:56;12.10;99.90
5128;DHT22;2582;48.770;9.190;2023-11-19T03:10:22;12.20;99.90
5128;DHT22;2582;48.770;9.190;2023-11-19T03:12:49;12.10;99.90
5128;DHT22;2582;48.770;9.190;2023-11-19T03:15:15;12.20;99.90
5128;DHT22;2582;48.770;9.190;2023-11-19T03:17:42;12.40;99.90
5128;DHT22;2582;48.770;9.190;2023-11-19T03:20:11;12.30;99.90
5128;DHT22;2582;48.770;9.190;2023-11-19T03:22:41;12.10;99.90
5128;DHT22;2582;48.770;9.190;2023-11-19T03:25:10;12.00;99.90
5128;DHT22;2582;48.770;9.190;2023-11-19T03:27:36;12.10;99.90
5128;DHT22;2582;48.770;9.190;2023-11-19T03:30:03;12.20;99.90
5128;DHT22;2582;48.770;9.190;2023-11-19T03:32:33;12.10;99.90
5128;DHT22;2582;48.770;9.190;2023-11-19T03:35:00;12.10;99.90
5128;DHT22;2582;48.770;9.190;2023-11-19T03:37:26;12.20;99.90
5128;DHT22;2582;48.770;9.190;2023-11-19T03:39:54;12.20;99.90
5128;DHT22;2582;48.770;9.190;2023-11-19T03:42:20;12.30;99.90
5128;DHT22;2582;48.770;9.190;2023-11-19T03:44:49;12.30;99.90
5128;DHT22;2582;48.770;9.190;2023-11-19T03:47:15;12.40;99.90
5128;DHT22;2582;48.770;9.190;2023-11-19T03:49:40;12.10;99.90
5128;DHT22;2582;48.770;9.190;2023-11-19T03:52:06;12.10;99.90
5128;DHT22;2582;48.770;9.190;2023-11-19T03:54:31;12.20;99.90
5128;DHT22;2582;48.770;9.190;2023-11-19T03:56:58;12.30;99.90
5128;DHT22;2582;48.770;9.190;2023-11-19T03:59:25;12.40;99.90
5128;DHT22;2582;48.770;9.190;2023-11-19T04:01:50;12.40;99.90
5128;DHT22;2582;48.770;9.190;2023-11-19T04:04:19;12.30;99.90
5128;DHT22;2582;48.770;9.190;2023-11-19T04:06:44;12.20;99.90
5128;DHT22;2582;48.770;9.190;2023-11-19T04:09:10;12.10;99.90
5128;DHT22;2582;48.770;9.190;2023-11-19T04:11:36;12.10;99.90
5128;DHT22;2582;48.770;9.190;2023-11-19T04:14:01;12.20;99.90
5128;DHT22;2582;48.770;9.190;2023-11-19T04:16:27;12.10;99.90
5128;DHT22;2582;48.770;9.190;2023-11-19T04:18:56;12.10;99.90
5128;DHT22;2582;48.770;9.190;2023-11-19T04:21:21;12.20;99.90
5128;DHT22;2582;48.770;9.190;2023-11-19T04:23:48;12.20;99.90
5128;DHT22;2582;48.770;9.190;2023-11-19T04:26:14;12.20;99.90
5128;DHT22;2582;48.770;9.190;2023-11-19T04:28:41;12.30;99.90
5128;DHT22;2582;48.770;9.190;2023-11-19T04:31:06;12.30;99.90
5128;DHT22;2582;48.770;9.190;2023-11-19T04:33:32;12.30;99.90
5128;DHT22;2582;48.770;9.190;2023-11-19T04:35:57;12.20;99.90
5128;DHT22;2582;48.770;9.190;2023-11-19T04:38:23;12.20;99.90
5128;DHT22;2582;48.770;9.190;2023-11-19T04:40:49;12.30;99.90
5128;DHT22;2582;48.770;9.190;2023-11-19T04:43:14;12.30;99.90
5128;DHT22;2582;48.770;9.190;2023-11-19T04:45:40;12.30;99.90
5128;DHT22;2582;48.770;9.190;2023-11-19T04:48:06;12.40;99.90
5128;DHT22;2582;48.770;9.190;2023-11-19T04:50:32;12.40;99.90
5128;DHT22;2582;48.770;9.190;2023-11-19T04:52:57;12.30;99.90
5128;DHT22;2582;48.770;9.190;2023-11-19T04:55:23;12.40;99.90
5128;DHT22;2582;48.770;9.190;2023-11-19T04:57:48;12.40;99.90
5128;DHT22;2582;48.770;9.190;2023-11-19T05:00:14;12.50;99.90
5128;DHT22;2582;48.770;9.190;2023-11-19T05:02:40;12.50;99.90
5128;DHT22;2582;48.770;9.190;2023-11-19T05:05:05;12.50;99.90
5128;DHT22;2582;48.770;9.190;2023-11-19T05:07:31;12.40;99.90
5128;DHT22;2582;48.770;9.190;2023-11-19T05:09:57;12.40;99.90
5128;DHT22;2582;48.770;9.190;2023-11-19T05:12:23;12.50;99.90
5128;DHT22;2582;48.770;9.190;2023-11-19T05:14:49;12.50;99.90
5128;DHT22;2582;48.770;9.190;2023-11-19T05:17:17;12.60;99.90
5128;DHT22;2582;48.770;9.190;2023-11-19T05:19:43;12.50;99.90
5128;DHT22;2582;48.770;9.190;2023-11-19T05:22:09;12.60;99.90
5128;DHT22;2582;48.770;9.190;2023-11-19T05:24:34;12.50;99.90
5128;DHT22;2582;48.770;9.190;2023-11-19T05:27:01;12.60;99.90
5128;DHT22;2582;48.770;9.190;2023-11-19T05:29:27;12.50;99.90
5128;DHT22;2582;48.770;9.190;2023-11-19T05:31:53;12.50;99.90
5128;DHT22;2582;48.770;9.190;2023-11-19T05:34:20;12.50;99.90
5128;DHT22;2582;48.770;9.190;2023-11-19T05:36:46;12.50;99.90
5128;DHT22;2582;48.770;9.190;2023-11-19T05:39:12;12.50;99.90
5128;DHT22;2582;48.770;9.190;2023-11-19T05:41:37;12.60;99.90
5128;DHT22;2582;48.770;9.190;2023-11-19T05:44:04;12.70;99.90
5128;DHT22;2582;48.770;9.190;2023-11-19T05:46:30;12.70;99.90
5128;DHT22;2582;48.770;9.190;2023-11-19T05:48:55;12.70;99.90
5128;DHT22;2582;48.770;9.190;2023-11-19T05:51:21;12.70;99.90
5128;DHT22;2582;48.770;9.190;2023-11-19T05:53:46;12.70;99.90
5128;DHT22;2582;48.770;9.190;2023-11-19T05:56:12;12.80;99.90
5128;DHT22;2582;48.770;9.190;2023-11-19T05:58:38;12.80;99.90
5128;DHT22;2582;48.770;9.190;2023-11-19T06:01:05;12.80;99.90
5128;DHT22;2582;48.770;9.190;2023-11-19T06:03:32;12.80;99.90
5128;DHT22;2582;48.770;9.190;2023-11-19T06:05:58;12.80;99.90
5128;DHT22;2582;48.770;9.190;2023-11-19T06:08:24;12.70;99.90
5128;DHT22;2582;48.770;9.190;2023-11-19T06:10:52;12.70;99.90
5128;DHT22;2582;48.770;9.190;2023-11-19T06:13:18;12.70;99.90
5128;DHT22;2582;48.770;9.190;2023-11-19T06:15:44;12.70;99.90
5128;DHT22;2582;48.770;9.190;2023-11-19T06:18:10;12.70;99.90
5128;DHT22;2582;48.770;9.190;2023-11-19T06:20:37;12.80;99.90
5128;DHT22;2582;48.770;9.190;2023-11-19T06:23:03;12.80;99.90
5128;DHT22;2582;48.770;9.190;2023-11-19T06:25:28;12.90;99.90
5128;DHT22;2582;48.770;9.190;2023-11-19T06:27:54;12.90;99.90
5128;DHT22;2582;48.770;9.190;2023-11-19T06:30:20;12.80;99.90
5128;DHT22;2582;48.770;9.190;2023-11-19T06:32:46;12.80;99.90
5128;DHT22;2582;48.770;9.190;2023-11-19T06:35:12;12.80;99.90
5128;DHT22;2582;48.770;9.190;2023-11-19T06:37:39;12.80;99.90
5128;DHT22;2582;48.770;9.190;2023-11-19T06:40:05;12.90;99.90
5128;DHT22;2582;48.770;9.190;2023-11-19T06:42:32;12.90;99.90
5128;DHT22;2582;48.770;9.190;2023-11-19T06:44:57;13.00;99.90
5128;DHT22;2582;48.770;9.190;2023-11-19T06:47:27;13.00;99.90
5128;DHT22;2582;48.770;9.190;2023-11-19T06:49:55;13.00;99.90
5128;DHT22;2582;48.770;9.190;2023-11-19T06:52:21;13.10;99.90
5128;DHT22;2582;48.770;9.190;2023-11-19T06:54:47;13.20;99.90
5128;DHT22;2582;48.770;9.190;2023-11-19T06:57:12;13.20;99.90
5128;DHT22;2582;48.770;9.190;2023-11-19T06:59:38;13.20;99.90
5128;DHT22;2582;48.770;9.190;2023-11-19T07:02:04;13.10;99.90
5128;DHT22;2582;48.770;9.190;2023-11-19T07:04:32;13.10;99.90
5128;DHT22;2582;48.770;9.190;2023-11-19T07:07:01;13.10;99.90
5128;DHT22;2582;48.770;9.190;2023-11-19T07:09:26;13.00;99.90
5128;DHT22;2582;48.770;9.190;2023-11-19T07:11:52;13.10;99.90
5128;DHT22;2582;48.770;9.190;2023-11-19T07:14:18;13.00;99.90
5128;DHT22;2582;48.770;9.190;2023-11-19T07:16:44;13.00;99.90
5128;DHT22;2582;48.770;9.190;2023-11-19T07:19:11;13.00;99.90
5128;DHT22;2582;48.770;9.190;2023-11-19T07:21:37;13.00;99.90
5128;DHT22;2582;48.770;9.190;2023-11-19T07:24:05;13.00;99.90
5128;DHT22;2582;48.770;9.190;2023-11-19T07:26:31;13.00;99.90
5128;DHT22;2582;48.770;9.190;2023-11-19T07:28:57;13.00;99.90
5128;DHT22;2582;48.770;9.190;2023-11-19T07:31:23;13.00;99.90
5128;DHT22;2582;48.770;9.190;2023-11-19T07:33:49;13.00;99.90
5128;DHT22;2582;48.770;9.190;2023-11-19T07:36:15;13.00;99.90
5128;DHT22;2582;48.770;9.190;2023-11-19T07:38:40;13.00;99.90
5128;DHT22;2582;48.770;9.190;2023-11-19T07:41:06;12.90;99.90
5128;DHT22;2582;48.770;9.190;2023-11-19T07:43:32;13.10;99.90
5128;DHT22;2582;48.770;9.190;2023-11-19T07:45:58;13.20;99.90
5128;DHT22;2582;48.770;9.190;2023-11-19T07:48:29;13.20;99.90
5128;DHT22;2582;48.770;9.190;2023-11-19T07:50:54;13.20;99.90
5128;DHT22;2582;48.770;9.190;2023-11-19T07:53:20;13.20;99.90
5128;DHT22;2582;48.770;9.190;2023-11-19T07:55:46;13.20;99.90
5128;DHT22;2582;48.770;9.190;2023-11-19T07:58:12;13.30;99.90
5128;DHT22;2582;48.770;9.190;2023-11-19T08:00:38;13.40;99.90
5128;DHT22;2582;48.770;9.190;2023-11-19T08:03:04;13.40;99.90
5128;DHT22;2582;48.770;9.190;2023-11-19T08:05:33;13.40;99.90
5128;DHT22;2582;48.770;9.190;2023-11-19T08:07:58;13.30;99.90
5128;DHT22;2582;48.770;9.190;2023-11-19T08:10:24;13.40;99.90
5128;DHT22;2582;48.770;9.190;2023-11-19T08:12:49;13.40;99.90
5128;DHT22;2582;48.770;9.190;2023-11-19T08:15:15;13.40;99.90
5128;DHT22;2582;48.770;9.190;2023-11-19T08:17:41;13.40;99.90
5128;DHT22;2582;48.770;9.190;2023-11-19T08:20:08;13.40;99.90
5128;DHT22;2582;48.770;9.190;2023-11-19T08:22:37;13.60;99.90
5128;DHT22;2582;48.770;9.190;2023-11-19T08:25:06;13.60;99.90
5128;DHT22;2582;48.770;9.190;2023-11-19T08:27:32;13.60;99.90
5128;DHT22;2582;48.770;9.190;2023-11-19T08:29:58;13.60;99.90
5128;DHT22;2582;48.770;9.190;2023-11-19T08:32:25;13.80;99.90
5128;DHT22;2582;48.770;9.190;2023-11-19T08:34:50;13.90;99.90
5128;DHT22;2582;48.770;9.190;2023-11-19T08:37:16;13.90;99.90
5128;DHT22;2582;48.770;9.190;2023-11-19T08:39:46;14.10;99.90
5128;DHT22;2582;48.770;9.190;2023-11-19T08:42:12;14.20;99.90
5128;DHT22;2582;48.770;9.190;2023-11-19T08:44:37;14.50;99.90
5128;DHT22;2582;48.770;9.190;2023-11-19T08:47:03;14.60;99.90
5128;DHT22;2582;48.770;9.190;2023-11-19T08:49:29;14.60;99.90
5128;DHT22;2582;48.770;9.190;2023-11-19T08:51:54;14.70;99.90
5128;DHT22;2582;48.770;9.190;2023-11-19T08:54:20;14.80;99.90
5128;DHT22;2582;48.770;9.190;2023-11-19T08:56:46;14.60;99.90
5128;DHT22;2582;48.770;9.190;2023-11-19T08:59:12;14.50;99.90
5128;DHT22;2582;48.770;9.190;2023-11-19T09:01:38;14.60;99.90
5128;DHT22;2582;48.770;9.190;2023-11-19T09:04:03;14.50;99.90
5128;DHT22;2582;48.770;9.190;2023-11-19T09:06:30;14.60;99.90
5128;DHT22;2582;48.770;9.190;2023-11-19T09:08:55;14.50;99.90
5128;DHT22;2582;48.770;9.190;2023-11-19T09:11:25;14.50;99.90
5128;DHT22;2582;48.770;9.190;2023-11-19T09:13:51;14.60;99.90
5128;DHT22;2582;48.770;9.190;2023-11-19T09:16:17;14.60;99.90
5128;DHT22;2582;48.770;9.190;2023-11-19T09:18:42;14.90;99.90
5128;DHT22;2582;48.770;9.190;2023-11-19T09:21:08;15.10;99.90
5128;DHT22;2582;48.770;9.190;2023-11-19T09:23:35;15.20;99.90
5128;DHT22;2582;48.770;9.190;2023-11-19T09:26:05;15.20;99.90
5128;DHT22;2582;48.770;9.190;2023-11-19T09:28:31;15.00;99.90
5128;DHT22;2582;48.770;9.190;2023-11-19T09:30:56;15.20;99.90
5128;DHT22;2582;48.770;9.190;2023-11-19T09:33:22;15.30;99.90
5128;DHT22;2582;48.770;9.190;2023-11-19T09:35:48;15.40;99.90
5128;DHT22;2582;48.770;9.190;2023-11-19T09:38:15;15.50;99.90
5128;DHT22;2582;48.770;9.190;2023-11-19T09:40:41;15.70;99.90
5128;DHT22;2582;48.770;9.190;2023-11-19T09:43:07;15.80;99.90
5128;DHT22;2582;48.770;9.190;2023-11-19T09:45:48;15.80;99.90
5128;DHT22;2582;48.770;9.190;2023-11-19T09:48:18;15.90;99.90
5128;DHT22;2582;48.770;9.190;2023-11-19T09:50:46;15.80;99.90
5128;DHT22;2582;48.770;9.190;2023-11-19T09:53:12;15.80;99.90
5128;DHT22;2582;48.770;9.190;2023-11-19T09:55:38;15.70;99.90
5128;DHT22;2582;48.770;9.190;2023-11-19T09:58:04;15.80;99.90
5128;DHT22;2582;48.770;9.190;2023-11-19T10:00:31;16.10;99.90
5128;DHT22;2582;48.770;9.190;2023-11-19T10:02:57;16.10;99.90
5128;DHT22;2582;48.770;9.190;2023-11-19T10:05:24;16.10;99.90
5128;DHT22;2582;48.770;9.190;2023-11-19T10:07:50;16.20;99.90
5128;DHT22;2582;48.770;9.190;2023-11-19T10:10:16;16.30;99.90
5128;DHT22;2582;48.770;9.190;2023-11-19T10:12:45;16.50;99.90
5128;DHT22;2582;48.770;9.190;2023-11-19T10:15:19;16.50;99.90
5128;DHT22;2582;48.770;9.190;2023-11-19T10:17:45;16.40;99.90
5128;DHT22;2582;48.770;9.190;2023-11-19T10:20:11;16.30;99.90
5128;DHT22;2582;48.770;9.190;2023-11-19T10:22:39;16.40;99.90
5128;DHT22;2582;48.770;9.190;2023-11-19T10:25:21;16.50;99.90
5128;DHT22;2582;48.770;9.190;2023-11-19T10:27:47;16.60;99.90
5128;DHT22;2582;48.770;9.190;2023-11-19T10:30:17;16.80;99.90
5128;DHT22;2582;48.770;9.190;2023-11-19T10:32:42;16.70;99.90
5128;DHT22;2582;48.770;9.190;2023-11-19T10:35:08;16.90;99.90
5128;DHT22;2582;48.770;9.190;2023-11-19T10:37:34;17.10;99.90
5128;DHT22;2582;48.770;9.190;2023-11-19T10:40:03;17.30;99.90
5128;DHT22;2582;48.770;9.190;2023-11-19T10:42:30;17.40;99.90
5128;DHT22;2582;48.770;9.190;2023-11-19T10:44:56;17.40;99.90
5128;DHT22;2582;48.770;9.190;2023-11-19T10:47:23;17.90;99.90
5128;DHT22;2582;48.770;9.190;2023-11-19T10:49:49;18.20;99.90
5128;DHT22;2582;48.770;9.190;2023-11-19T10:52:18;19.20;99.90
5128;DHT22;2582;48.770;9.190;2023-11-19T10:54:50;20.20;99.90
5128;DHT22;2582;48.770;9.190;2023-11-19T10:57:21;20.20;99.90
5128;DHT22;2582;48.770;9.190;2023-11-19T10:59:52;19.60;99.90
5128;DHT22;2582;48.770;9.190;2023-11-19T11:02:20;19.70;99.90
5128;DHT22;2582;48.770;9.190;2023-11-19T11:04:47;19.80;99.90
5128;DHT22;2582;48.770;9.190;2023-11-19T11:07:15;20.00;99.90
5128;DHT22;2582;48.770;9.190;2023-11-19T11:09:44;19.90;99.90
5128;DHT22;2582;48.770;9.190;2023-11-19T11:12:12;18.80;99.90
5128;DHT22;2582;48.770;9.190;2023-11-19T11:14:38;18.00;99.90
5128;DHT22;2582;48.770;9.190;2023-11-19T11:17:06;17.60;99.90
5128;DHT22;2582;48.770;9.190;2023-11-19T11:19:34;17.10;99.90
5128;DHT22;2582;48.770;9.190;2023-11-19T11:22:00;16.70;99.90
5128;DHT22;2582;48.770;9.190;2023-11-19T11:27:48;16.40;99.90
5128;DHT22;2582;48.770;9.190;2023-11-19T11:33:53;16.50;99.90
5128;DHT22;2582;48.770;9.190;2023-11-19T11:36:23;16.50;99.90
5128;DHT22;2582;48.770;9.190;2023-11-19T11:38:50;16.40;99.90
5128;DHT22;2582;48.770;9.190;2023-11-19T11:41:23;16.30;99.90
5128;DHT22;2582;48.770;9.190;2023-11-19T11:43:50;16.30;99.90
5128;DHT22;2582;48.770;9.190;2023-11-19T11:49:02;16.70;99.90
5128;DHT22;2582;48.770;9.190;2023-11-19T11:54:14;17.30;99.90
5128;DHT22;2582;48.770;9.190;2023-11-19T11:57:12;17.90;99.90
5128;DHT22;2582;48.770;9.190;2023-11-19T12:02:08;18.20;99.90
5128;DHT22;2582;48.770;9.190;2023-11-19T12:04:38;20.10;99.90
5128;DHT22;2582;48.770;9.190;2023-11-19T12:07:14;21.10;99.90
5128;DHT22;2582;48.770;9.190;2023-11-19T12:09:41;21.00;99.90
5128;DHT22;2582;48.770;9.190;2023-11-19T12:12:28;20.70;99.90
5128;DHT22;2582;48.770;9.190;2023-11-19T12:20:05;23.10;99.90
5128;DHT22;2582;48.770;9.190;2023-11-19T12:22:31;24.50;98.70
5128;DHT22;2582;48.770;9.190;2023-11-19T12:24:58;22.90;97.90
5128;DHT22;2582;48.770;9.190;2023-11-19T12:27:24;21.60;99.60
5128;DHT22;2582;48.770;9.190;2023-11-19T12:29:50;20.80;99.90
5128;DHT22;2582;48.770;9.190;2023-11-19T12:32:16;20.50;99.90
5128;DHT22;2582;48.770;9.190;2023-11-19T12:34:41;20.30;99.90
5128;DHT22;2582;48.770;9.190;2023-11-19T12:37:08;19.50;99.90
5128;DHT22;2582;48.770;9.190;2023-11-19T12:39:36;18.90;99.90
5128;DHT22;2582;48.770;9.190;2023-11-19T12:42:02;18.50;99.90
5128;DHT22;2582;48.770;9.190;2023-11-19T12:44:28;18.40;99.90
5128;DHT22;2582;48.770;9.190;2023-11-19T12:47:01;18.00;99.90
5128;DHT22;2582;48.770;9.190;2023-11-19T12:49:27;17.70;99.90
5128;DHT22;2582;48.770;9.190;2023-11-19T12:51:52;17.50;99.90
5128;DHT22;2582;48.770;9.190;2023-11-19T12:54:18;17.40;99.90
5128;DHT22;2582;48.770;9.190;2023-11-19T12:56:54;17.20;99.90
5128;DHT22;2582;48.770;9.190;2023-11-19T12:59:19;17.00;99.90
5128;DHT22;2582;48.770;9.190;2023-11-19T13:01:55;16.90;99.90
5128;DHT22;2582;48.770;9.190;2023-11-19T13:04:21;16.90;99.90
5128;DHT22;2582;48.770;9.190;2023-11-19T13:06:47;17.00;99.90
5128;DHT22;2582;48.770;9.190;2023-11-19T13:09:28;16.90;99.90
5128;DHT22;2582;48.770;9.190;2023-11-19T13:11:55;16.90;99.90
5128;DHT22;2582;48.770;9.190;2023-11-19T13:14:22;16.70;99.90
5128;DHT22;2582;48.770;9.190;2023-11-19T13:16:48;16.60;99.90
5128;DHT22;2582;48.770;9.190;2023-11-19T13:19:15;16.50;99.90
5128;DHT22;2582;48.770;9.190;2023-11-19T13:21:45;16.50;99.90
5128;DHT22;2582;48.770;9.190;2023-11-19T13:24:12;16.50;99.90
5128;DHT22;2582;48.770;9.190;2023-11-19T13:26:38;16.60;99.90
5128;DHT22;2582;48.770;9.190;2023-11-19T13:29:04;16.60;99.90
5128;DHT22;2582;48.770;9.190;2023-11-19T13:31:29;16.60;99.90
5128;DHT22;2582;48.770;9.190;2023-11-19T13:33:55;16.60;99.90
5128;DHT22;2582;48.770;9.190;2023-11-19T13:36:22;16.60;99.90
5128;DHT22;2582;48.770;9.190;2023-11-19T13:38:47;16.50;99.90
5128;DHT22;2582;48.770;9.190;2023-11-19T13:41:13;16.50;99.90
5128;DHT22;2582;48.770;9.190;2023-11-19T13:43:39;16.50;99.90
5128;DHT22;2582;48.770;9.190;2023-11-19T13:46:05;16.50;99.90
5128;DHT22;2582;48.770;9.190;2023-11-19T13:48:31;16.40;99.90
5128;DHT22;2582;48.770;9.190;2023-11-19T13:50:57;16.50;99.90
5128;DHT22;2582;48.770;9.190;2023-11-19T13:53:23;16.50;99.90
5128;DHT22;2582;48.770;9.190;2023-11-19T13:55:49;16.30;99.90
5128;DHT22;2582;48.770;9.190;2023-11-19T13:58:15;16.10;99.90
5128;DHT22;2582;48.770;9.190;2023-11-19T14:00:41;16.00;99.90
5128;DHT22;2582;48.770;9.190;2023-11-19T14:03:08;16.00;99.90
5128;DHT22;2582;48.770;9.190;2023-11-19T14:05:35;15.90;99.90
5128;DHT22;2582;48.770;9.190;2023-11-19T14:08:01;15.90;99.90
5128;DHT22;2582;48.770;9.190;2023-11-19T14:10:27;15.90;99.90
5128;DHT22;2582;48.770;9.190;2023-11-19T14:12:52;15.70;99.90
5128;DHT22;2582;48.770;9.190;2023-11-19T14:15:18;15.70;99.90
5128;DHT22;2582;48.770;9.190;2023-11-19T14:17:44;15.80;99.90
5128;DHT22;2582;48.770;9.190;2023-11-19T14:20:09;15.80;99.90
5128;DHT22;2582;48.770;9.190;2023-11-19T14:22:43;15.90;99.90
5128;DHT22;2582;48.770;9.190;2023-11-19T14:25:10;15.90;99.90
5128;DHT22;2582;48.770;9.190;2023-11-19T14:27:37;15.90;99.90
5128;DHT22;2582;48.770;9.190;2023-11-19T14:30:05;15.80;99.90
5128;DHT22;2582;48.770;9.190;2023-11-19T14:32:31;15.70;99.90
5128;DHT22;2582;48.770;9.190;2023-11-19T14:34:57;15.70;99.90
5128;DHT22;2582;48.770;9.190;2023-11-19T14:37:22;15.70;99.90
5128;DHT22;2582;48.770;9.190;2023-11-19T14:39:48;15.70;99.90
5128;DHT22;2582;48.770;9.190;2023-11-19T14:42:16;15.70;99.90
5128;DHT22;2582;48.770;9.190;2023-11-19T14:44:42;15.90;99.90
5128;DHT22;2582;48.770;9.190;2023-11-19T14:47:07;15.90;99.90
5128;DHT22;2582;48.770;9.190;2023-11-19T14:49:35;15.90;99.90
5128;DHT22;2582;48.770;9.190;2023-11-19T14:52:00;15.60;99.90
5128;DHT22;2582;48.770;9.190;2023-11-19T14:54:26;15.70;99.90
5128;DHT22;2582;48.770;9.190;2023-11-19T14:56:51;15.70;99.90
5128;DHT22;2582;48.770;9.190;2023-11-19T14:59:17;15.50;99.90
5128;DHT22;2582;48.770;9.190;2023-11-19T15:01:45;15.40;99.90
5128;DHT22;2582;48.770;9.190;2023-11-19T15:04:10;15.30;99.90
5128;DHT22;2582;48.770;9.190;2023-11-19T15:06:37;15.30;99.90
5128;DHT22;2582;48.770;9.190;2023-11-19T15:09:03;15.20;99.90
5128;DHT22;2582;48.770;9.190;2023-11-19T15:11:28;15.20;99.90
5128;DHT22;2582;48.770;9.190;2023-11-19T15:13:54;15.00;99.90
5128;DHT22;2582;48.770;9.190;2023-11-19T15:16:20;15.00;99.90
5128;DHT22;2582;48.770;9.190;2023-11-19T15:18:57;15.00;99.90
5128;DHT22;2582;48.770;9.190;2023-11-19T15:21:27;14.90;99.90
5128;DHT22;2582;48.770;9.190;2023-11-19T15:23:54;14.90;99.90
5128;DHT22;2582;48.770;9.190;2023-11-19T15:26:20;14.90;99.90
5128;DHT22;2582;48.770;9.190;2023-11-19T15:28:46;14.80;99.90
5128;DHT22;2582;48.770;9.190;2023-11-19T15:31:12;14.90;99.90
5128;DHT22;2582;48.770;9.190;2023-11-19T15:33:38;14.80;99.90
5128;DHT22;2582;48.770;9.190;2023-11-19T15:36:05;14.80;99.90
5128;DHT22;2582;48.770;9.190;2023-11-19T15:38:36;14.70;99.90
5128;DHT22;2582;48.770;9.190;2023-11-19T15:41:01;14.60;99.90
5128;DHT22;2582;48.770;9.190;2023-11-19T15:43:30;14.60;99.90
5128;DHT22;2582;48.770;9.190;2023-11-19T15:45:56;14.50;99.90
5128;DHT22;2582;48.770;9.190;2023-11-19T15:48:22;14.40;99.90
5128;DHT22;2582;48.770;9.190;2023-11-19T15:50:47;14.50;99.90
5128;DHT22;2582;48.770;9.190;2023-11-19T15:53:13;14.50;99.90
5128;DHT22;2582;48.770;9.190;2023-11-19T15:55:39;14.50;99.90
5128;DHT22;2582;48.770;9.190;2023-11-19T15:58:04;14.40;99.90
5128;DHT22;2582;48.770;9.190;2023-11-19T16:00:30;14.30;99.90
5128;DHT22;2582;48.770;9.190;2023-11-19T16:02:57;14.30;99.90
5128;DHT22;2582;48.770;9.190;2023-11-19T16:05:22;14.20;99.90
5128;DHT22;2582;48.770;9.190;2023-11-19T16:07:49;14.20;99.90
5128;DHT22;2582;48.770;9.190;2023-11-19T16:10:15;14.20;99.90
5128;DHT22;2582;48.770;9.190;2023-11-19T16:12:45;14.20;99.90
5128;DHT22;2582;48.770;9.190;2023-11-19T16:15:10;14.30;99.90
5128;DHT22;2582;48.770;9.190;2023-11-19T16:17:36;14.30;99.90
5128;DHT22;2582;48.770;9.190;2023-11-19T16:20:04;14.30;99.90